createdAt,value
2023-02-15T00:04:15.629Z,11.96
2023-02-15T00:09:20.931Z,12.07
2023-02-15T00:14:25.759Z,12.02
2023-02-15T00:19:29.455Z,12.03
2023-02-15T00:24:34.881Z,12.04
2023-02-15T00:29:38.514Z,12.16
2023-02-15T00:34:42.148Z,12.12
2023-02-15T00:39:48.401Z,11.97
2023-02-15T00:44:51.995Z,11.69
2023-02-15T00:49:55.644Z,11.43
2023-02-15T00:55:00.927Z,11.11
2023-02-15T01:00:04.776Z,10.93
2023-02-15T01:05:08.762Z,10.80
2023-02-15T01:10:15.236Z,10.73
2023-02-15T01:15:18.980Z,10.45
2023-02-15T01:20:23.827Z,10.23
2023-02-15T01:25:29.175Z,9.97
2023-02-15T01:30:33.732Z,10.02
2023-02-15T01:35:39.138Z,9.97
2023-02-15T01:40:44.441Z,9.84
2023-02-15T01:45:51.047Z,9.68
2023-02-15T01:50:58.408Z,9.50
2023-02-15T01:56:07.155Z,9.31
2023-02-15T02:01:11.091Z,9.31
2023-02-15T02:06:14.869Z,9.38
2023-02-15T02:11:20.154Z,9.49
2023-02-15T02:16:30.207Z,9.27
2023-02-15T02:22:09.605Z,9.20
2023-02-15T02:27:31.324Z,9.03
2023-02-15T02:33:20.083Z,8.85
2023-02-15T02:38:30.032Z,8.70
2023-02-15T02:43:42.072Z,8.61
2023-02-15T02:48:48.676Z,8.54
2023-02-15T02:53:55.306Z,8.57
2023-02-15T02:59:03.096Z,8.33
2023-02-15T03:04:12.443Z,8.36
2023-02-15T03:09:26.600Z,8.51
2023-02-15T03:14:30.735Z,8.44
2023-02-15T03:19:38.752Z,8.55
2023-02-15T03:24:48.605Z,8.49
2023-02-15T03:29:57.246Z,8.53
2023-02-15T03:35:03.403Z,8.50
2023-02-15T03:40:13.099Z,8.61
2023-02-15T03:45:24.393Z,8.76
2023-02-15T03:50:32.430Z,8.62
2023-02-15T03:55:36.726Z,8.48
2023-02-15T04:00:45.284Z,8.44
2023-02-15T04:05:50.735Z,8.45
2023-02-15T04:10:54.470Z,8.51
2023-02-15T04:15:58.148Z,8.46
2023-02-15T04:21:04.048Z,8.41
2023-02-15T04:26:07.932Z,8.54
2023-02-15T04:31:11.637Z,8.40
2023-02-15T04:36:16.968Z,8.48
2023-02-15T04:41:20.628Z,8.48
2023-02-15T04:46:24.484Z,8.43
2023-02-15T04:51:29.811Z,8.43
2023-02-15T04:56:33.496Z,8.31
2023-02-15T05:01:37.101Z,8.34
2023-02-15T05:06:43.427Z,8.37
2023-02-15T05:11:46.270Z,8.40
2023-02-15T05:16:49.932Z,8.25
2023-02-15T05:21:56.294Z,8.26
2023-02-15T05:26:59.155Z,8.20
2023-02-15T05:32:03.019Z,8.17
2023-02-15T05:37:08.453Z,8.19
2023-02-15T05:42:12.074Z,8.06
2023-02-15T05:47:15.699Z,7.99
2023-02-15T05:52:21.186Z,8.06
2023-02-15T05:57:24.805Z,8.09
2023-02-15T06:02:28.667Z,8.06
2023-02-15T06:07:34.148Z,7.90
2023-02-15T06:12:37.767Z,7.73
2023-02-15T06:17:43.259Z,7.52
2023-02-15T06:22:48.565Z,7.52
2023-02-15T06:27:52.220Z,7.60
2023-02-15T06:32:55.844Z,7.42
2023-02-15T06:38:01.126Z,7.39
2023-02-15T06:43:04.750Z,7.12
2023-02-15T06:48:08.375Z,7.32
2023-02-15T06:53:13.663Z,7.34
2023-02-15T06:58:17.321Z,7.44
2023-02-15T07:03:20.940Z,7.57
2023-02-15T07:08:26.626Z,7.64
2023-02-15T07:13:30.275Z,7.64
2023-02-15T07:18:33.932Z,7.68
2023-02-15T07:23:40.040Z,7.54
2023-02-15T07:28:43.720Z,7.51
2023-02-15T07:33:47.352Z,7.56
2023-02-15T07:38:52.627Z,7.41
2023-02-15T07:43:56.262Z,7.42
2023-02-15T07:48:59.938Z,7.39
2023-02-15T07:54:05.302Z,7.45
2023-02-15T07:59:08.921Z,7.58
2023-02-15T08:04:13.322Z,7.51
2023-02-15T08:09:18.610Z,7.49
2023-02-15T08:14:23.220Z,7.26
2023-02-15T08:19:28.117Z,7.27
2023-02-15T08:24:34.739Z,7.23
2023-02-15T08:29:40.008Z,7.19
2023-02-15T08:34:44.467Z,7.10
2023-02-15T08:39:49.780Z,7.09
2023-02-15T08:44:53.387Z,7.07
2023-02-15T08:49:57.103Z,7.06
2023-02-15T08:55:02.699Z,7.02
2023-02-15T09:00:07.421Z,6.94
2023-02-15T09:05:11.029Z,6.97
2023-02-15T09:10:16.474Z,6.90
2023-02-15T09:15:20.095Z,6.82
2023-02-15T09:20:23.781Z,6.74
2023-02-15T09:25:29.443Z,6.72
2023-02-15T09:30:33.209Z,6.65
2023-02-15T09:35:37.483Z,6.56
2023-02-15T09:41:04.867Z,6.47
2023-02-15T09:46:24.294Z,6.40
2023-02-15T09:51:53.949Z,6.29
2023-02-15T09:57:03.487Z,6.16
2023-02-15T10:02:22.001Z,5.97
2023-02-15T10:07:42.792Z,5.91
2023-02-15T10:13:10.453Z,6.03
2023-02-15T10:18:32.486Z,5.95
2023-02-15T10:23:58.762Z,5.87
2023-02-15T10:29:08.685Z,5.71
2023-02-15T10:34:20.010Z,5.70
2023-02-15T10:39:32.370Z,5.51
2023-02-15T10:44:50.061Z,5.61
2023-02-15T10:50:18.512Z,5.53
2023-02-15T10:55:36.422Z,5.47
2023-02-15T11:00:47.499Z,5.62
2023-02-15T11:06:03.375Z,5.87
2023-02-15T11:11:10.917Z,5.92
2023-02-15T11:16:19.200Z,6.00
2023-02-15T11:21:27.882Z,5.95
2023-02-15T11:26:35.801Z,5.93
2023-02-15T11:31:47.868Z,5.87
2023-02-15T11:36:55.455Z,5.39
2023-02-15T11:42:03.202Z,5.22
2023-02-15T11:47:13.229Z,5.12
2023-02-15T11:52:19.545Z,5.02
2023-02-15T11:57:29.535Z,4.94
2023-02-15T12:02:37.482Z,4.99
2023-02-15T12:07:47.050Z,5.05
2023-02-15T12:13:09.917Z,4.94
2023-02-15T12:18:28.963Z,4.70
2023-02-15T12:23:34.609Z,4.58
2023-02-15T12:28:42.141Z,4.65
2023-02-15T12:33:48.741Z,4.73
2023-02-15T12:39:21.096Z,4.78
2023-02-15T12:44:27.173Z,4.67
2023-02-15T12:49:33.519Z,4.53
2023-02-15T12:54:41.865Z,4.38
2023-02-15T12:59:55.902Z,4.40
2023-02-15T13:05:16.022Z,4.40
2023-02-15T13:10:28.316Z,4.52
2023-02-15T13:15:37.363Z,4.65
2023-02-15T13:20:44.271Z,4.54
2023-02-15T13:25:49.618Z,4.47
2023-02-15T13:30:53.642Z,4.32
2023-02-15T13:36:07.000Z,4.40
2023-02-15T13:41:16.797Z,4.35
2023-02-15T13:46:38.497Z,4.38
2023-02-15T13:51:50.053Z,4.45
2023-02-15T13:57:08.851Z,4.46
2023-02-15T14:02:46.207Z,4.29
2023-02-15T14:07:57.149Z,4.21
2023-02-15T14:13:21.928Z,4.01
2023-02-15T14:18:33.518Z,3.99
2023-02-15T14:23:49.770Z,4.19
2023-02-15T14:29:07.673Z,4.36
2023-02-15T14:34:23.318Z,4.32
2023-02-15T14:39:38.576Z,4.26
2023-02-15T14:44:50.057Z,4.12
2023-02-15T14:49:53.724Z,4.41
2023-02-15T14:55:01.177Z,4.16
2023-02-15T15:00:26.716Z,4.26
2023-02-15T15:05:36.710Z,4.21
2023-02-15T15:10:45.423Z,4.26
2023-02-15T15:15:49.327Z,4.50
2023-02-15T15:20:53.588Z,5.04
2023-02-15T15:26:20.503Z,5.45
2023-02-15T15:31:32.804Z,6.05
2023-02-15T15:37:13.256Z,6.73
2023-02-15T15:42:32.577Z,7.17
2023-02-15T15:48:05.216Z,7.54
2023-02-15T15:53:21.853Z,8.08
2023-02-15T15:58:27.545Z,8.39
2023-02-15T16:03:31.684Z,8.91
2023-02-15T16:08:36.991Z,9.51
2023-02-15T16:13:44.334Z,9.70
2023-02-15T16:18:48.923Z,10.04
2023-02-15T16:24:18.395Z,10.39
2023-02-15T16:29:29.800Z,10.76
2023-02-15T16:34:33.978Z,11.06
2023-02-15T16:39:43.852Z,11.43
2023-02-15T16:44:53.011Z,11.85
2023-02-15T16:49:59.919Z,12.28
2023-02-15T16:55:07.471Z,12.59
2023-02-15T17:00:23.345Z,12.62
2023-02-15T17:05:33.335Z,12.76
2023-02-15T17:10:38.607Z,13.25
2023-02-15T17:15:45.528Z,13.52
2023-02-15T17:20:51.720Z,13.60
2023-02-15T17:25:55.704Z,13.87
2023-02-15T17:31:01.513Z,13.71
2023-02-15T17:36:08.889Z,13.88
2023-02-15T17:41:12.486Z,14.18
2023-02-15T17:46:18.082Z,14.20
2023-02-15T17:51:25.513Z,14.24
2023-02-15T17:56:29.192Z,14.50
2023-02-15T18:01:36.820Z,14.52
2023-02-15T18:06:42.530Z,14.48
2023-02-15T18:11:46.198Z,14.44
2023-02-15T18:16:51.651Z,14.39
2023-02-15T18:21:55.514Z,14.60
2023-02-15T18:26:59.155Z,14.91
2023-02-15T18:32:08.505Z,14.96
2023-02-15T18:37:16.500Z,14.96
2023-02-15T18:42:23.347Z,14.96
2023-02-15T18:47:28.773Z,14.93
2023-02-15T18:52:36.860Z,14.95
2023-02-15T18:57:40.999Z,15.05
2023-02-15T19:02:46.876Z,15.09
2023-02-15T19:07:50.323Z,15.31
2023-02-15T19:12:56.055Z,15.05
2023-02-15T19:18:01.456Z,15.22
2023-02-15T19:23:07.492Z,15.48
2023-02-15T19:28:17.026Z,15.53
2023-02-15T19:33:22.720Z,15.55
2023-02-15T19:38:31.209Z,15.32
2023-02-15T19:43:35.861Z,15.34
2023-02-15T19:48:41.150Z,15.66
2023-02-15T19:53:46.109Z,15.66
2023-02-15T19:58:50.735Z,15.51
2023-02-15T20:03:57.009Z,15.53
2023-02-15T20:09:00.805Z,15.56
2023-02-15T20:14:04.446Z,15.94
2023-02-15T20:19:09.746Z,15.82
2023-02-15T20:24:16.899Z,15.71
2023-02-15T20:29:20.577Z,15.72
2023-02-15T20:34:25.899Z,15.75
2023-02-15T20:44:56.813Z,16.05
2023-02-15T20:50:02.078Z,16.05
2023-02-15T20:55:16.527Z,16.12
2023-02-15T21:00:22.066Z,16.02
2023-02-15T21:05:28.660Z,16.11
2023-02-15T21:10:35.082Z,15.73
2023-02-15T21:15:39.323Z,15.95
2023-02-15T21:20:47.349Z,16.13
2023-02-15T21:25:50.970Z,16.14
2023-02-15T21:30:56.397Z,16.22
2023-02-15T21:36:02.921Z,16.09
2023-02-15T21:41:06.734Z,16.11
2023-02-15T21:46:14.912Z,16.09
2023-02-15T21:51:20.201Z,15.94
2023-02-15T21:56:24.332Z,15.96
2023-02-15T22:01:29.363Z,15.92
2023-02-15T22:06:34.665Z,15.92
2023-02-15T22:11:38.337Z,15.78
2023-02-15T22:16:42.024Z,16.01
2023-02-15T22:21:47.372Z,15.85
2023-02-15T22:26:51.027Z,15.78
2023-02-15T22:31:54.782Z,15.68
2023-02-15T22:37:00.432Z,15.51
2023-02-15T22:42:04.215Z,15.67
2023-02-15T22:47:16.507Z,15.62
2023-02-15T22:52:22.145Z,15.57
2023-02-15T22:57:30.990Z,15.36
2023-02-15T23:02:34.650Z,15.29
2023-02-15T23:07:40.931Z,15.25
2023-02-15T23:12:44.748Z,14.96
2023-02-15T23:17:48.437Z,14.97
2023-02-15T23:22:53.798Z,15.03
2023-02-15T23:27:57.489Z,14.96
2023-02-15T23:33:01.672Z,14.89
2023-02-15T23:38:17.972Z,14.70
2023-02-15T23:43:22.309Z,14.60
2023-02-15T23:48:31.969Z,14.59
2023-02-15T23:53:37.323Z,14.46
2023-02-15T23:58:43.042Z,14.62
